Time;durP1;ratioP1;P1;durP2;ratioP2;P2;SDS_P1;SDS_P2;PMS_P1;PMS_P2;Temp;Humidity;BMP_temperature;BMP_pressure;BME280_temperature;BME280_humidity;BME280_pressure;Samples;Min_cycle;Max_cycle;Signal;HPM_P1;HPM_P2
2022/07/31 00:00:55;;;;;;;1030.60;948.42;;;23.50;95.60;;;;;;5054975;28;20493;-83
2022/07/31 00:03:22;;;;;;;1019.97;938.30;;;23.50;95.60;;;;;;5048574;28;20200;-84
2022/07/31 00:05:49;;;;;;;1028.07;945.70;;;23.50;95.60;;;;;;5048717;28;20477;-84
2022/07/31 00:08:15;;;;;;;1023.67;940.87;;;23.40;95.60;;;;;;5058115;28;20200;-84
2022/07/31 00:10:42;;;;;;;1033.20;950.25;;;23.40;95.70;;;;;;5063223;28;20475;-84
2022/07/31 00:13:09;;;;;;;1011.08;929.28;;;23.40;95.70;;;;;;5064915;28;20196;-84
2022/07/31 00:15:37;;;;;;;1015.28;932.22;;;23.40;95.80;;;;;;5056798;28;20203;-85
2022/07/31 00:18:04;;;;;;;1015.05;931.92;;;23.40;95.80;;;;;;5056530;28;20196;-84
2022/07/31 00:20:30;;;;;;;1028.28;943.13;;;23.40;95.90;;;;;;5054923;28;20213;-84
2022/07/31 00:22:57;;;;;;;1017.67;929.72;;;23.40;95.90;;;;;;5058599;28;20305;-83
2022/07/31 00:25:24;;;;;;;1026.68;938.42;;;23.40;95.90;;;;;;5049835;28;20191;-84
2022/07/31 00:27:51;;;;;;;1020.33;934.50;;;23.40;96.00;;;;;;5055723;28;20218;-86
2022/07/31 00:30:17;;;;;;;1012.08;924.85;;;23.30;96.00;;;;;;5049141;28;20203;-85
2022/07/31 00:32:46;;;;;;;1013.15;925.95;;;23.30;96.00;;;;;;5051494;28;20215;-86
2022/07/31 00:35:13;;;;;;;1017.22;930.60;;;23.30;96.10;;;;;;5044062;28;20199;-86
2022/07/31 00:37:41;;;;;;;1019.95;932.28;;;23.30;96.10;;;;;;5038483;28;20195;-86
2022/07/31 00:40:10;;;;;;;1022.60;934.85;;;23.30;96.20;;;;;;5043608;28;20695;-86
2022/07/31 00:42:36;;;;;;;1015.28;927.67;;;23.30;96.20;;;;;;5051392;28;20195;-86
2022/07/31 00:45:05;;;;;;;1015.22;927.55;;;23.30;96.30;;;;;;5054081;28;20670;-86
2022/07/31 00:47:32;;;;;;;1027.60;939.50;;;23.20;96.30;;;;;;5058677;28;20554;-86
2022/07/31 00:50:00;;;;;;;1015.95;928.42;;;23.20;96.30;;;;;;5047076;28;20199;-86
2022/07/31 00:52:26;;;;;;;1017.13;929.35;;;23.20;96.40;;;;;;5046694;28;20230;-86
2022/07/31 00:54:53;;;;;;;1024.93;936.88;;;23.20;96.50;;;;;;5051473;28;20207;-86
2022/07/31 00:57:20;;;;;;;1013.75;925.63;;;23.20;96.50;;;;;;5047932;28;20198;-85
2022/07/31 00:59:46;;;;;;;1015.85;928.03;;;23.20;96.60;;;;;;5051553;28;20203;-83
2022/07/31 01:02:13;;;;;;;1004.03;916.65;;;23.10;96.60;;;;;;5051841;28;20704;-84
2022/07/31 01:04:40;;;;;;;1005.97;918.58;;;23.10;96.60;;;;;;5055852;28;20202;-84
2022/07/31 01:07:08;;;;;;;1003.90;916.42;;;23.10;96.70;;;;;;5045567;28;20196;-84
2022/07/31 01:09:35;;;;;;;1009.53;921.80;;;23.10;96.70;;;;;;5041147;28;20232;-84
2022/07/31 01:12:07;;;;;;;1016.00;928.20;;;23.10;96.80;;;;;;5044319;28;20215;-84
2022/07/31 01:14:38;;;;;;;998.88;912.40;;;23.10;96.90;;;;;;5050193;28;20199;-84
2022/07/31 01:17:06;;;;;;;1012.00;925.40;;;23.10;96.90;;;;;;5045911;28;20191;-85
2022/07/31 01:19:39;;;;;;;999.53;913.35;;;23.10;97.00;;;;;;5034937;28;20196;-85
2022/07/31 01:22:20;;;;;;;1021.05;934.97;;;23.00;96.90;;;;;;5051321;28;20199;-86
2022/07/31 01:25:00;;;;;;;996.45;911.38;;;23.00;97.00;;;;;;5038560;28;20207;-85
2022/07/31 01:27:32;;;;;;;1004.80;919.78;;;23.00;97.10;;;;;;5047108;28;20195;-85
2022/07/31 01:30:03;;;;;;;1002.47;917.67;;;23.00;97.10;;;;;;5050605;28;20210;-85
2022/07/31 01:32:35;;;;;;;991.53;906.38;;;23.00;97.20;;;;;;5051211;28;20309;-85
2022/07/31 01:35:06;;;;;;;996.05;910.63;;;23.00;97.20;;;;;;5047669;28;20207;-85
2022/07/31 01:37:36;;;;;;;999.40;913.90;;;22.90;97.20;;;;;;5045073;28;20207;-84
2022/07/31 01:40:08;;;;;;;1007.05;921.25;;;22.90;97.30;;;;;;5053212;28;20195;-84
2022/07/31 01:42:37;;;;;;;994.15;908.90;;;22.90;97.30;;;;;;5046869;28;20195;-85
2022/07/31 01:45:09;;;;;;;996.22;910.83;;;22.90;97.40;;;;;;5043890;28;20200;-86
2022/07/31 01:47:39;;;;;;;992.25;906.78;;;22.90;97.50;;;;;;5067467;28;20198;-85
2022/07/31 01:50:08;;;;;;;1003.33;917.55;;;22.90;97.50;;;;;;5034784;28;20204;-85
2022/07/31 01:52:36;;;;;;;993.33;908.00;;;22.80;97.50;;;;;;5042854;28;20211;-84
2022/07/31 01:55:05;;;;;;;991.13;906.78;;;22.80;97.60;;;;;;5041478;28;20214;-84
2022/07/31 01:57:33;;;;;;;997.08;912.47;;;22.80;97.60;;;;;;5050241;28;20199;-84
2022/07/31 02:00:02;;;;;;;1004.15;919.17;;;22.80;97.70;;;;;;5057953;28;20646;-83
2022/07/31 02:02:31;;;;;;;994.47;909.22;;;22.80;97.80;;;;;;5038110;28;20238;-83
2022/07/31 02:04:58;;;;;;;1001.88;916.33;;;22.70;97.80;;;;;;5051424;28;20945;-84
2022/07/31 02:07:26;;;;;;;998.47;913.03;;;22.70;97.80;;;;;;5055771;28;20203;-85
2022/07/31 02:09:54;;;;;;;1006.88;920.67;;;22.70;97.90;;;;;;5046730;28;20200;-83
2022/07/31 02:12:23;;;;;;;987.10;901.60;;;22.70;97.90;;;;;;5044719;28;20215;-85
2022/07/31 02:14:51;;;;;;;1003.00;916.80;;;22.70;98.00;;;;;;5041778;28;20207;-83
2022/07/31 02:17:18;;;;;;;997.17;911.28;;;22.70;98.00;;;;;;5044513;28;20199;-84
2022/07/31 02:19:49;;;;;;;991.75;905.97;;;22.70;98.10;;;;;;5057610;28;20206;-84
2022/07/31 02:22:15;;;;;;;996.10;910.10;;;22.60;98.10;;;;;;5053631;28;20193;-84
2022/07/31 02:24:42;;;;;;;986.95;901.28;;;22.60;98.20;;;;;;5054143;28;20195;-87
2022/07/31 02:27:11;;;;;;;986.55;900.97;;;22.60;98.20;;;;;;5055354;28;20210;-86
2022/07/31 02:29:39;;;;;;;993.47;907.28;;;22.60;98.30;;;;;;5051623;28;20199;-87
2022/07/31 02:32:07;;;;;;;999.05;912.55;;;22.60;98.30;;;;;;5051909;28;20245;-88
2022/07/31 02:34:35;;;;;;;981.95;895.95;;;22.60;98.40;;;;;;5049895;28;20200;-88
2022/07/31 02:37:04;;;;;;;980.25;894.42;;;22.60;98.50;;;;;;5056840;28;20200;-88
2022/07/31 02:39:34;;;;;;;987.55;901.67;;;22.60;98.50;;;;;;5042322;28;20200;-84
2022/07/31 02:42:01;;;;;;;980.72;894.95;;;22.50;98.50;;;;;;5032140;28;20562;-84
2022/07/31 02:44:31;;;;;;;989.42;903.08;;;22.50;98.60;;;;;;5047898;28;20222;-82
2022/07/31 02:47:01;;;;;;;984.92;898.78;;;22.50;98.70;;;;;;5050677;28;20202;-82
2022/07/31 02:49:28;;;;;;;987.90;901.47;;;22.50;98.70;;;;;;5045789;28;20286;-81
2022/07/31 02:51:56;;;;;;;981.90;895.72;;;22.50;98.80;;;;;;5035084;28;20310;-81
2022/07/31 02:54:24;;;;;;;980.90;894.83;;;22.50;98.90;;;;;;5048546;28;20295;-81
2022/07/31 02:56:53;;;;;;;975.97;889.80;;;22.50;98.90;;;;;;5048800;28;20539;-80
2022/07/31 02:59:21;;;;;;;994.80;908.03;;;22.40;98.90;;;;;;5035310;28;20196;-80
2022/07/31 03:01:48;;;;;;;969.38;883.28;;;22.40;99.00;;;;;;5040741;28;20662;-81
2022/07/31 03:04:15;;;;;;;981.03;894.22;;;22.40;99.00;;;;;;5055532;28;20202;-81
2022/07/31 03:06:42;;;;;;;978.95;892.35;;;22.40;99.10;;;;;;5051264;28;20198;-82
2022/07/31 03:09:08;;;;;;;980.25;893.47;;;22.40;99.20;;;;;;5043363;28;20210;-81
2022/07/31 03:11:37;;;;;;;985.70;898.70;;;22.40;99.20;;;;;;5037591;28;20200;-81
2022/07/31 03:14:05;;;;;;;981.05;894.33;;;22.30;99.20;;;;;;5049172;28;20214;-81
2022/07/31 03:16:32;;;;;;;969.83;883.67;;;22.30;99.30;;;;;;5042244;28;20195;-81
2022/07/31 03:19:01;;;;;;;979.25;892.50;;;22.30;99.30;;;;;;5036100;28;20206;-81
2022/07/31 03:21:28;;;;;;;961.53;875.47;;;22.30;99.40;;;;;;5048235;28;20559;-81
2022/07/31 03:23:55;;;;;;;973.67;887.20;;;22.30;99.40;;;;;;5046291;28;20199;-83
2022/07/31 03:26:22;;;;;;;962.83;876.60;;;22.30;99.50;;;;;;5043314;28;20572;-81
2022/07/31 03:28:50;;;;;;;981.00;894.33;;;22.30;99.50;;;;;;5048933;28;20213;-83
2022/07/31 03:31:17;;;;;;;969.20;882.72;;;22.20;99.50;;;;;;5044602;28;20201;-81
2022/07/31 03:33:43;;;;;;;958.00;871.95;;;22.20;99.50;;;;;;5056097;28;20226;-82
2022/07/31 03:36:11;;;;;;;962.55;876.60;;;22.20;99.60;;;;;;5051942;28;20248;-83
2022/07/31 03:38:38;;;;;;;956.58;870.90;;;22.20;99.60;;;;;;5048613;28;20198;-82
2022/07/31 03:41:05;;;;;;;978.38;891.92;;;22.20;99.60;;;;;;5043719;28;20218;-84
2022/07/31 03:43:33;;;;;;;956.78;870.88;;;22.20;99.70;;;;;;5043098;28;20198;-82
2022/07/31 03:46:02;;;;;;;961.15;875.35;;;22.20;99.70;;;;;;5056972;28;20625;-82
2022/07/31 03:48:30;;;;;;;958.80;872.85;;;22.20;99.80;;;;;;5044678;28;20199;-83
2022/07/31 03:50:57;;;;;;;965.05;878.63;;;22.10;99.70;;;;;;5045611;28;20683;-83
2022/07/31 03:53:25;;;;;;;967.63;881.45;;;22.10;99.80;;;;;;5053556;28;20222;-81
2022/07/31 03:55:54;;;;;;;975.03;888.33;;;22.10;99.90;;;;;;5043640;28;20195;-81
2022/07/31 03:58:23;;;;;;;955.58;869.65;;;22.10;99.90;;;;;;5042867;28;20198;-82
2022/07/31 04:00:50;;;;;;;956.10;870.40;;;22.10;99.90;;;;;;5047078;28;20210;-83
2022/07/31 04:03:19;;;;;;;951.92;866.20;;;22.10;99.90;;;;;;5050495;28;20187;-81
2022/07/31 04:05:45;;;;;;;960.28;874.20;;;22.10;99.90;;;;;;5051484;28;20211;-83
2022/07/31 04:08:14;;;;;;;966.92;880.45;;;22.10;99.90;;;;;;5058821;28;20199;-82
2022/07/31 04:10:41;;;;;;;957.10;871.13;;;22.10;99.90;;;;;;5038042;28;20199;-83
2022/07/31 04:13:08;;;;;;;971.35;884.90;;;22.10;99.90;;;;;;5055915;28;20744;-82
2022/07/31 04:15:34;;;;;;;982.78;895.90;;;22.00;99.90;;;;;;5044868;28;20223;-82
2022/07/31 04:18:01;;;;;;;968.90;882.33;;;22.00;99.90;;;;;;5047384;28;20196;-83
2022/07/31 04:20:31;;;;;;;968.95;882.55;;;22.00;99.90;;;;;;5036462;28;20207;-83
2022/07/31 04:22:58;;;;;;;952.03;866.15;;;22.00;99.90;;;;;;5053231;28;20646;-83
2022/07/31 04:25:25;;;;;;;970.10;883.58;;;22.00;99.90;;;;;;5051468;28;20660;-82
2022/07/31 04:27:54;;;;;;;957.40;871.15;;;22.00;99.90;;;;;;5047864;28;20205;-82
2022/07/31 04:30:20;;;;;;;954.58;868.42;;;22.00;99.90;;;;;;5055869;28;20703;-81
2022/07/31 04:32:47;;;;;;;954.45;868.47;;;22.00;99.90;;;;;;5047843;28;20219;-80
2022/07/31 04:35:14;;;;;;;956.60;870.75;;;22.00;99.90;;;;;;5055194;28;20630;-81
2022/07/31 04:37:42;;;;;;;953.58;867.65;;;22.00;99.90;;;;;;5055209;28;20203;-82
2022/07/31 04:40:11;;;;;;;950.55;864.85;;;21.90;99.90;;;;;;5050305;28;20206;-82
2022/07/31 04:42:39;;;;;;;952.38;866.80;;;21.90;99.90;;;;;;5045696;28;20198;-81
2022/07/31 04:45:09;;;;;;;964.15;878.42;;;21.90;99.90;;;;;;5068147;28;20199;-83
2022/07/31 04:47:35;;;;;;;955.10;870.13;;;21.90;99.90;;;;;;5051340;28;20199;-81
2022/07/31 04:50:02;;;;;;;979.35;893.65;;;21.90;99.90;;;;;;5046253;28;20202;-81
2022/07/31 04:52:29;;;;;;;950.50;866.05;;;21.90;99.90;;;;;;5039428;28;20274;-81
2022/07/31 04:54:57;;;;;;;955.33;870.47;;;21.90;99.90;;;;;;5053146;28;20203;-81
2022/07/31 04:57:24;;;;;;;955.25;870.35;;;21.90;99.90;;;;;;5044657;28;20294;-83
2022/07/31 04:59:51;;;;;;;966.22;881.03;;;21.90;99.90;;;;;;5048242;28;20200;-81
2022/07/31 05:02:17;;;;;;;956.10;871.25;;;21.90;99.90;;;;;;5042236;28;20585;-81
2022/07/31 05:04:44;;;;;;;962.65;877.47;;;21.90;99.90;;;;;;5055750;28;20209;-83
2022/07/31 05:07:11;;;;;;;947.03;862.60;;;21.90;99.90;;;;;;5061192;28;20363;-82
2022/07/31 05:09:38;;;;;;;965.00;880.13;;;21.90;99.90;;;;;;5042436;28;20199;-81
2022/07/31 05:12:07;;;;;;;955.35;870.78;;;21.90;99.90;;;;;;5041426;28;20194;-82
2022/07/31 05:14:34;;;;;;;947.40;863.28;;;21.90;99.90;;;;;;5033667;28;20719;-82
2022/07/31 05:17:01;;;;;;;946.95;862.63;;;21.90;99.90;;;;;;5057601;28;20213;-80
2022/07/31 05:19:28;;;;;;;952.25;868.05;;;21.90;99.90;;;;;;5060021;28;20566;-81
2022/07/31 05:21:58;;;;;;;963.90;879.10;;;21.90;99.90;;;;;;5050325;28;20227;-81
2022/07/31 05:24:25;;;;;;;947.65;863.42;;;21.90;99.90;;;;;;5051500;28;20642;-81
2022/07/31 05:26:52;;;;;;;946.30;862.30;;;21.90;99.90;;;;;;5050482;28;20199;-81
2022/07/31 05:29:20;;;;;;;952.53;868.20;;;21.80;99.90;;;;;;5055333;28;20195;-84
2022/07/31 05:31:46;;;;;;;949.63;865.13;;;21.90;99.90;;;;;;5048787;28;20196;-81
2022/07/31 05:34:13;;;;;;;955.40;870.72;;;21.90;99.90;;;;;;5060262;28;20226;-82
2022/07/31 05:36:40;;;;;;;965.70;880.53;;;21.80;99.90;;;;;;5037741;28;20199;-81
2022/07/31 05:39:08;;;;;;;949.35;864.70;;;21.80;99.90;;;;;;5049662;28;20191;-81
2022/07/31 05:41:35;;;;;;;969.70;883.88;;;21.80;99.90;;;;;;5042205;28;20195;-82
2022/07/31 05:44:02;;;;;;;963.08;877.88;;;21.80;99.90;;;;;;5036662;28;20200;-81
2022/07/31 05:46:30;;;;;;;961.58;876.47;;;21.80;99.90;;;;;;5040214;28;20262;-81
2022/07/31 05:48:56;;;;;;;960.42;874.90;;;21.80;99.90;;;;;;5043667;28;20199;-81
2022/07/31 05:51:23;;;;;;;959.42;874.35;;;21.80;99.90;;;;;;5054199;28;20195;-81
2022/07/31 05:53:50;;;;;;;959.40;874.15;;;21.80;99.90;;;;;;5063149;28;20756;-81
2022/07/31 05:56:17;;;;;;;961.03;875.72;;;21.80;99.90;;;;;;5065644;28;20670;-80
2022/07/31 05:58:44;;;;;;;960.50;875.05;;;21.80;99.90;;;;;;5050034;28;20199;-79
2022/07/31 06:01:11;;;;;;;950.08;865.15;;;21.80;99.90;;;;;;5041464;28;20219;-79
2022/07/31 06:03:39;;;;;;;959.85;874.58;;;21.80;99.90;;;;;;5047500;28;20683;-80
2022/07/31 06:06:06;;;;;;;955.42;870.22;;;21.80;99.90;;;;;;5051995;28;20217;-81
2022/07/31 06:08:33;;;;;;;946.88;862.10;;;21.80;99.90;;;;;;5039773;28;20207;-80
2022/07/31 06:11:00;;;;;;;943.17;858.67;;;21.80;99.90;;;;;;5051441;28;20194;-82
2022/07/31 06:13:29;;;;;;;960.13;874.97;;;21.80;99.90;;;;;;5044775;28;20277;-80
2022/07/31 06:15:56;;;;;;;960.22;874.70;;;21.80;99.90;;;;;;5036102;28;20272;-81
2022/07/31 06:18:23;;;;;;;950.55;865.58;;;21.80;99.90;;;;;;5045736;28;20199;-80
2022/07/31 06:20:51;;;;;;;964.42;879.08;;;21.80;99.90;;;;;;5052964;28;20206;-80
2022/07/31 06:23:18;;;;;;;942.75;858.00;;;21.80;99.90;;;;;;5049068;28;20203;-80
2022/07/31 06:25:45;;;;;;;957.72;872.38;;;21.80;99.90;;;;;;5048641;28;20689;-79
2022/07/31 06:28:12;;;;;;;939.17;853.97;;;21.80;99.90;;;;;;5051922;28;20564;-78
2022/07/31 06:30:40;;;;;;;934.70;850.15;;;21.80;99.90;;;;;;5047953;28;20191;-80
2022/07/31 06:33:08;;;;;;;949.90;864.70;;;21.80;99.90;;;;;;5044698;28;20234;-78
2022/07/31 06:35:35;;;;;;;953.53;868.33;;;21.80;99.90;;;;;;5048886;28;20225;-78
2022/07/31 06:38:05;;;;;;;949.67;864.53;;;21.80;99.90;;;;;;5032914;28;20218;-79
2022/07/31 06:40:33;;;;;;;944.22;859.25;;;21.80;99.90;;;;;;5033365;28;20203;-78
2022/07/31 06:43:01;;;;;;;948.22;863.17;;;21.80;99.90;;;;;;5036662;28;20289;-79
2022/07/31 06:45:28;;;;;;;933.13;848.42;;;21.80;99.90;;;;;;5041316;28;20200;-78
2022/07/31 06:47:55;;;;;;;945.05;860.10;;;21.80;99.90;;;;;;5033958;28;20202;-79
2022/07/31 06:50:22;;;;;;;943.38;858.50;;;21.80;99.90;;;;;;5047714;28;20554;-79
2022/07/31 06:52:52;;;;;;;956.15;870.78;;;21.90;99.90;;;;;;5037349;28;20203;-78
2022/07/31 06:55:29;;;;;;;953.60;868.38;;;21.90;99.90;;;;;;5042640;28;20257;-79
2022/07/31 06:57:56;;;;;;;954.03;868.78;;;22.00;99.90;;;;;;5059279;28;20229;-78
2022/07/31 07:00:23;;;;;;;956.67;871.40;;;22.00;99.90;;;;;;5055117;28;20243;-80
2022/07/31 07:02:49;;;;;;;956.70;871.22;;;22.00;99.90;;;;;;5040429;28;20219;-78
2022/07/31 07:05:16;;;;;;;957.58;872.17;;;22.10;99.90;;;;;;5051488;28;20290;-79
2022/07/31 07:07:43;;;;;;;961.15;875.50;;;22.20;99.90;;;;;;5039092;28;20211;-77
2022/07/31 07:10:11;;;;;;;965.58;879.78;;;22.30;99.90;;;;;;5047173;28;20203;-79
2022/07/31 07:12:39;;;;;;;955.35;869.95;;;22.40;99.90;;;;;;5052187;28;20195;-77
2022/07/31 07:15:07;;;;;;;984.00;897.40;;;22.40;99.90;;;;;;5057971;28;20210;-77
2022/07/31 07:17:34;;;;;;;983.90;897.53;;;22.50;99.90;;;;;;5058897;28;20211;-77
2022/07/31 07:20:01;;;;;;;984.88;898.20;;;22.50;99.90;;;;;;5038256;28;20205;-79
2022/07/31 07:22:28;;;;;;;986.75;900.10;;;22.60;99.90;;;;;;5042667;28;20291;-76
2022/07/31 07:24:54;;;;;;;993.55;906.80;;;22.60;99.90;;;;;;5044469;28;20223;-79
2022/07/31 07:27:21;;;;;;;989.05;902.35;;;22.60;99.90;;;;;;5041182;28;20206;-79
2022/07/31 07:29:49;;;;;;;977.22;891.08;;;22.60;99.90;;;;;;5038032;28;20195;-78
2022/07/31 07:32:16;;;;;;;971.28;885.00;;;22.70;99.90;;;;;;5051848;28;20566;-79
2022/07/31 07:34:43;;;;;;;974.88;888.70;;;22.70;99.90;;;;;;5039456;28;20227;-80
2022/07/31 07:37:09;;;;;;;985.78;899.33;;;22.70;99.90;;;;;;5049863;28;20196;-77
2022/07/31 07:39:36;;;;;;;970.53;884.67;;;22.60;99.90;;;;;;5035057;28;20206;-81
2022/07/31 07:42:03;;;;;;;981.17;894.78;;;22.60;99.90;;;;;;5050146;28;20202;-79
2022/07/31 07:44:29;;;;;;;963.28;877.53;;;22.60;99.90;;;;;;5056240;28;20194;-82
2022/07/31 07:46:57;;;;;;;975.00;888.88;;;22.60;99.90;;;;;;5059532;28;20194;-80
2022/07/31 07:49:24;;;;;;;981.35;895.05;;;22.60;99.90;;;;;;5037860;28;20654;-81
2022/07/31 07:51:51;;;;;;;971.22;885.15;;;22.50;99.90;;;;;;5046962;28;20593;-79
2022/07/31 07:54:17;;;;;;;980.08;893.58;;;22.50;99.90;;;;;;5053179;28;20215;-80
2022/07/31 07:56:44;;;;;;;974.50;888.30;;;22.50;99.90;;;;;;5039744;28;20659;-78
2022/07/31 07:59:12;;;;;;;972.53;886.15;;;22.50;99.90;;;;;;5052257;28;20261;-81
2022/07/31 08:01:38;;;;;;;965.63;879.75;;;22.50;99.90;;;;;;5038265;28;20219;-80
2022/07/31 08:04:06;;;;;;;970.28;884.30;;;22.50;99.90;;;;;;5042926;28;20196;-81
2022/07/31 08:06:33;;;;;;;980.50;894.15;;;22.50;99.90;;;;;;5040858;28;20191;-81
2022/07/31 08:09:00;;;;;;;982.50;895.83;;;22.50;99.90;;;;;;5041134;28;20209;-80
2022/07/31 08:11:26;;;;;;;986.05;899.03;;;22.60;99.90;;;;;;5042847;28;20220;-81
2022/07/31 08:13:53;;;;;;;976.38;889.78;;;22.80;99.90;;;;;;5032329;28;20218;-80
2022/07/31 08:16:20;;;;;;;1003.03;915.45;;;23.00;99.90;;;;;;5040662;28;20195;-82
2022/07/31 08:18:47;;;;;;;991.90;904.63;;;23.20;99.90;;;;;;5050649;28;20576;-80
2022/07/31 08:21:15;;;;;;;996.55;909.47;;;23.30;99.70;;;;;;5040116;28;20219;-80
2022/07/31 08:23:42;;;;;;;997.67;910.65;;;23.30;99.40;;;;;;5036566;28;20191;-80
2022/07/31 08:26:09;;;;;;;1014.97;927.30;;;23.30;99.20;;;;;;5048915;28;20199;-81
2022/07/31 08:28:36;;;;;;;1011.65;923.88;;;23.30;99.20;;;;;;5053328;28;20206;-83
2022/07/31 08:31:03;;;;;;;1005.30;917.97;;;23.30;99.20;;;;;;5051142;28;20195;-80
2022/07/31 08:33:31;;;;;;;996.63;909.55;;;23.30;99.20;;;;;;5061678;28;20207;-79
2022/07/31 08:35:59;;;;;;;1012.03;924.42;;;23.20;99.20;;;;;;5059854;28;20639;-80
2022/07/31 08:38:28;;;;;;;998.30;911.17;;;23.20;99.40;;;;;;5053433;28;20566;-81
2022/07/31 08:40:54;;;;;;;1000.38;913.15;;;23.20;99.40;;;;;;5042777;28;20199;-80
2022/07/31 08:43:21;;;;;;;1006.60;919.33;;;23.20;99.50;;;;;;5053788;28;20205;-80
2022/07/31 08:45:49;;;;;;;992.38;905.58;;;23.20;99.60;;;;;;5054304;28;20681;-81
2022/07/31 08:48:16;;;;;;;991.97;905.13;;;23.10;99.60;;;;;;5054113;28;20205;-81
2022/07/31 08:50:45;;;;;;;995.15;908.30;;;23.10;99.70;;;;;;5057779;28;20194;-80
2022/07/31 08:53:15;;;;;;;996.47;909.63;;;23.10;99.80;;;;;;5060898;28;20202;-81
2022/07/31 08:55:45;;;;;;;992.72;906.10;;;23.00;99.80;;;;;;5053003;28;20560;-82
2022/07/31 08:58:11;;;;;;;990.55;903.58;;;23.00;99.90;;;;;;5046678;28;20198;-80
2022/07/31 09:00:41;;;;;;;988.50;901.83;;;23.10;99.90;;;;;;5043751;28;20199;-83
2022/07/31 09:03:08;;;;;;;1003.58;916.30;;;23.10;99.90;;;;;;5054540;28;20214;-81
2022/07/31 09:05:37;;;;;;;983.10;896.55;;;23.00;99.90;;;;;;5037984;28;20203;-80
2022/07/31 09:08:04;;;;;;;991.47;904.83;;;23.00;99.90;;;;;;5056764;28;20210;-79
2022/07/31 09:10:31;;;;;;;996.80;909.92;;;23.00;99.90;;;;;;5038709;28;20196;-80
2022/07/31 09:12:59;;;;;;;996.75;909.95;;;23.00;99.90;;;;;;5039972;28;20539;-80
2022/07/31 09:15:28;;;;;;;996.58;909.78;;;23.00;99.90;;;;;;5057484;28;20222;-80
2022/07/31 09:17:55;;;;;;;983.20;896.88;;;23.00;99.90;;;;;;5053553;28;20394;-81
2022/07/31 09:20:24;;;;;;;990.22;903.60;;;23.00;99.90;;;;;;5046172;28;20206;-81
2022/07/31 09:23:03;;;;;;;1003.88;916.58;;;23.00;99.90;;;;;;5043161;28;20207;-80
2022/07/31 09:25:30;;;;;;;1002.13;914.92;;;23.00;99.90;;;;;;5038159;28;20191;-81
2022/07/31 09:28:03;;;;;;;982.35;896.10;;;23.00;99.90;;;;;;5037441;28;20211;-81
2022/07/31 09:30:30;;;;;;;1002.38;915.05;;;23.00;99.90;;;;;;5039161;28;20669;-81
2022/07/31 09:33:12;;;;;;;985.35;898.95;;;23.00;99.90;;;;;;5047969;28;20203;-82
2022/07/31 09:35:47;;;;;;;987.60;901.13;;;23.00;99.90;;;;;;5048327;28;20250;-82
2022/07/31 09:38:13;;;;;;;992.45;905.75;;;23.00;99.90;;;;;;5050059;28;20224;-80
2022/07/31 09:40:42;;;;;;;987.88;901.25;;;23.00;99.90;;;;;;5043676;28;20562;-80
2022/07/31 09:43:15;;;;;;;1000.58;913.80;;;23.00;99.90;;;;;;5037639;28;20191;-82
2022/07/31 09:45:45;;;;;;;996.42;909.85;;;23.00;99.90;;;;;;5042486;28;20187;-80
2022/07/31 09:48:12;;;;;;;984.45;898.25;;;23.10;99.90;;;;;;5047280;28;20191;-81
2022/07/31 09:50:39;;;;;;;1002.00;915.03;;;23.10;99.90;;;;;;5045321;28;20680;-80
2022/07/31 09:53:06;;;;;;;984.10;897.85;;;23.10;99.90;;;;;;5039201;28;20677;-80
2022/07/31 09:55:34;;;;;;;989.13;902.78;;;23.10;99.90;;;;;;5044000;28;20218;-81
2022/07/31 09:58:01;;;;;;;993.03;906.25;;;23.10;99.90;;;;;;5041159;28;20203;-82
2022/07/31 10:00:30;;;;;;;1003.47;916.63;;;23.20;99.90;;;;;;5040036;28;20278;-80
2022/07/31 10:02:57;;;;;;;997.65;911.03;;;23.20;99.90;;;;;;5046132;28;20217;-84
2022/07/31 10:05:25;;;;;;;996.15;909.67;;;23.20;99.90;;;;;;5050815;28;20198;-80
2022/07/31 10:07:54;;;;;;;1003.50;916.60;;;23.20;99.90;;;;;;5051825;28;20650;-82
2022/07/31 10:10:23;;;;;;;1004.42;917.58;;;23.20;99.90;;;;;;5049326;28;20191;-83
2022/07/31 10:12:52;;;;;;;1000.03;913.30;;;23.20;99.90;;;;;;5040038;28;20195;-82
2022/07/31 10:15:20;;;;;;;1002.70;915.63;;;23.20;99.90;;;;;;5039558;28;20218;-81
2022/07/31 10:17:50;;;;;;;988.25;901.75;;;23.20;99.90;;;;;;5038121;28;20200;-79
2022/07/31 10:20:21;;;;;;;992.88;906.17;;;23.30;99.90;;;;;;5044342;28;20469;-80
2022/07/31 10:22:50;;;;;;;1010.05;922.97;;;23.30;99.90;;;;;;5050310;28;20245;-82
2022/07/31 10:25:21;;;;;;;1003.53;916.58;;;23.30;99.90;;;;;;5047659;28;20231;-81
2022/07/31 10:27:48;;;;;;;1010.10;922.60;;;23.30;99.90;;;;;;5048825;28;20199;-80
2022/07/31 10:30:15;;;;;;;1002.53;915.47;;;23.40;99.90;;;;;;5037686;28;20222;-79
2022/07/31 10:32:43;;;;;;;1003.42;916.35;;;23.40;99.90;;;;;;5040056;28;20196;-81
2022/07/31 10:35:12;;;;;;;1012.35;925.15;;;23.40;99.90;;;;;;5049278;28;20280;-79
2022/07/31 10:38:03;;;;;;;1016.08;928.85;;;23.40;99.90;;;;;;5139858;27;20588;-83
2022/07/31 10:40:35;;;;;;;1014.88;927.50;;;23.40;99.90;;;;;;5142051;27;20188;-81
2022/07/31 10:43:18;;;;;;;1014.03;926.65;;;23.50;99.90;;;;;;5137865;27;20676;-81
2022/07/31 10:45:46;;;;;;;1014.47;927.00;;;23.50;99.90;;;;;;5143396;27;20662;-80
2022/07/31 10:48:13;;;;;;;1022.65;934.92;;;23.50;99.90;;;;;;5142076;27;20278;-79
2022/07/31 10:50:40;;;;;;;1021.28;933.55;;;23.40;99.90;;;;;;5143909;27;20230;-80
2022/07/31 10:53:09;;;;;;;1024.55;936.67;;;23.50;99.90;;;;;;5133586;27;20554;-80
2022/07/31 10:55:36;;;;;;;1016.17;928.35;;;23.50;99.90;;;;;;5133865;27;20287;-80
2022/07/31 10:58:11;;;;;;;1010.15;922.85;;;23.50;99.90;;;;;;5142867;27;20210;-80
2022/07/31 11:00:38;;;;;;;1014.15;926.67;;;23.50;99.90;;;;;;5134549;27;20194;-81
2022/07/31 11:03:16;;;;;;;1019.78;932.08;;;23.50;99.90;;;;;;5121407;27;20260;-80
2022/07/31 11:05:53;;;;;;;1020.50;932.90;;;23.50;99.90;;;;;;5125523;28;20200;-81
2022/07/31 11:08:22;;;;;;;1019.45;931.78;;;23.60;99.90;;;;;;5124053;28;20188;-84
2022/07/31 11:10:50;;;;;;;1012.45;925.03;;;23.60;99.90;;;;;;5118327;28;20192;-81
2022/07/31 11:13:17;;;;;;;1019.58;931.72;;;23.60;99.90;;;;;;5123283;27;20193;-82
2022/07/31 11:15:43;;;;;;;1016.13;928.25;;;23.70;99.90;;;;;;5113657;28;20196;-81
2022/07/31 11:18:14;;;;;;;1021.60;933.95;;;23.70;99.90;;;;;;5122927;28;20193;-81
2022/07/31 11:20:45;;;;;;;1020.58;933.03;;;23.70;99.90;;;;;;5122794;28;20201;-81
2022/07/31 11:23:15;;;;;;;1024.25;936.08;;;23.80;99.90;;;;;;5126155;28;20197;-81
2022/07/31 11:25:45;;;;;;;1030.82;942.58;;;23.80;99.90;;;;;;5126715;27;20204;-80
2022/07/31 11:28:14;;;;;;;1037.60;949.15;;;23.90;99.90;;;;;;5113803;27;20193;-81
2022/07/31 11:30:52;;;;;;;1026.35;938.40;;;23.90;99.90;;;;;;5124641;27;20197;-81
2022/07/31 11:33:30;;;;;;;1018.03;930.28;;;23.90;99.90;;;;;;5119670;28;20643;-79
2022/07/31 11:35:57;;;;;;;1020.85;933.28;;;24.00;99.90;;;;;;5124198;28;20209;-81
2022/07/31 11:38:27;;;;;;;1024.43;936.53;;;24.00;99.90;;;;;;5126734;28;20199;-80
2022/07/31 11:40:55;;;;;;;1030.25;942.03;;;24.00;99.90;;;;;;5125040;27;20210;-82
2022/07/31 11:43:22;;;;;;;1027.18;939.13;;;24.00;99.90;;;;;;5117578;28;20197;-80
2022/07/31 11:45:51;;;;;;;1039.38;950.90;;;24.10;99.90;;;;;;5120980;27;20212;-81
2022/07/31 11:48:19;;;;;;;1038.77;950.67;;;24.10;99.90;;;;;;5109098;28;20346;-80
2022/07/31 11:50:47;;;;;;;1033.80;946.08;;;24.10;99.90;;;;;;5103536;28;20454;-79
2022/07/31 11:53:13;;;;;;;1042.77;954.57;;;24.20;99.90;;;;;;5106320;28;20267;-81
2022/07/31 11:55:48;;;;;;;1045.27;957.07;;;24.20;99.90;;;;;;5110257;28;20470;-83
2022/07/31 11:58:18;;;;;;;1047.93;959.70;;;24.20;99.90;;;;;;5100844;28;20469;-82
2022/07/31 12:00:52;;;;;;;1042.80;954.90;;;24.20;99.90;;;;;;5104255;28;20200;-80
2022/07/31 12:03:21;;;;;;;1038.55;950.33;;;24.20;99.90;;;;;;5101343;28;20467;-79
2022/07/31 12:05:51;;;;;;;1034.95;947.03;;;24.20;99.90;;;;;;5100275;28;20204;-81
2022/07/31 12:08:18;;;;;;;1032.75;945.03;;;24.20;99.90;;;;;;5103869;28;20212;-82
2022/07/31 12:10:45;;;;;;;1038.03;950.13;;;24.20;99.90;;;;;;5103875;27;20200;-81